sensor_id;sensor_type;location;lat;lon;timestamp;temperature;humidity
7518;DHT22;3800;48.922;9.444;2022-08-01T00:00:46;19.30;99.90
7518;DHT22;3800;48.922;9.444;2022-08-01T00:03:14;19.30;99.90
7518;DHT22;3800;48.922;9.444;2022-08-01T00:05:43;19.30;99.90
7518;DHT22;3800;48.922;9.444;2022-08-01T00:08:12;19.20;99.90
7518;DHT22;3800;48.922;9.444;2022-08-01T00:10:43;19.20;99.90
7518;DHT22;3800;48.922;9.444;2022-08-01T00:13:12;19.20;99.90
7518;DHT22;3800;48.922;9.444;2022-08-01T00:15:41;19.10;99.90
7518;DHT22;3800;48.922;9.444;2022-08-01T00:18:10;19.20;99.90
7518;DHT22;3800;48.922;9.444;2022-08-01T00:20:41;19.20;99.90
7518;DHT22;3800;48.922;9.444;2022-08-01T00:23:09;19.20;99.90
7518;DHT22;3800;48.922;9.444;2022-08-01T00:25:37;19.20;99.90
7518;DHT22;3800;48.922;9.444;2022-08-01T00:28:07;19.10;99.90
7518;DHT22;3800;48.922;9.444;2022-08-01T00:30:35;19.10;99.90
7518;DHT22;3800;48.922;9.444;2022-08-01T00:33:03;19.00;99.90
7518;DHT22;3800;48.922;9.444;2022-08-01T00:35:31;18.90;99.90
7518;DHT22;3800;48.922;9.444;2022-08-01T00:38:00;18.90;99.90
7518;DHT22;3800;48.922;9.444;2022-08-01T00:40:28;18.80;99.90
7518;DHT22;3800;48.922;9.444;2022-08-01T00:42:56;18.80;99.90
7518;DHT22;3800;48.922;9.444;2022-08-01T00:45:25;18.70;99.90
7518;DHT22;3800;48.922;9.444;2022-08-01T00:47:53;18.60;99.90
7518;DHT22;3800;48.922;9.444;2022-08-01T00:50:21;18.60;99.90
7518;DHT22;3800;48.922;9.444;2022-08-01T00:52:50;18.50;99.90
7518;DHT22;3800;48.922;9.444;2022-08-01T00:55:19;18.50;99.90
7518;DHT22;3800;48.922;9.444;2022-08-01T00:57:48;18.30;99.90
7518;DHT22;3800;48.922;9.444;2022-08-01T01:00:16;18.30;99.90
7518;DHT22;3800;48.922;9.444;2022-08-01T01:02:45;18.20;99.90
7518;DHT22;3800;48.922;9.444;2022-08-01T01:05:13;18.20;99.90
7518;DHT22;3800;48.922;9.444;2022-08-01T01:10:27;18.10;99.90
7518;DHT22;3800;48.922;9.444;2022-08-01T01:12:59;18.10;99.90
7518;DHT22;3800;48.922;9.444;2022-08-01T01:15:36;18.10;99.90
7518;DHT22;3800;48.922;9.444;2022-08-01T01:18:07;18.10;99.90
7518;DHT22;3800;48.922;9.444;2022-08-01T01:20:36;18.10;99.90
7518;DHT22;3800;48.922;9.444;2022-08-01T01:23:10;18.00;99.90
7518;DHT22;3800;48.922;9.444;2022-08-01T01:25:48;17.90;99.90
7518;DHT22;3800;48.922;9.444;2022-08-01T01:28:33;17.90;99.90
7518;DHT22;3800;48.922;9.444;2022-08-01T01:31:02;17.80;99.90
7518;DHT22;3800;48.922;9.444;2022-08-01T01:33:30;17.80;99.90
7518;DHT22;3800;48.922;9.444;2022-08-01T01:35:59;17.70;99.90
7518;DHT22;3800;48.922;9.444;2022-08-01T01:38:29;17.70;99.90
7518;DHT22;3800;48.922;9.444;2022-08-01T01:40:57;17.60;99.90
7518;DHT22;3800;48.922;9.444;2022-08-01T01:43:25;17.60;99.90
7518;DHT22;3800;48.922;9.444;2022-08-01T01:45:53;17.60;99.90
7518;DHT22;3800;48.922;9.444;2022-08-01T01:48:22;17.60;99.90
7518;DHT22;3800;48.922;9.444;2022-08-01T01:50:51;17.60;99.90
7518;DHT22;3800;48.922;9.444;2022-08-01T01:53:20;17.50;99.90
7518;DHT22;3800;48.922;9.444;2022-08-01T01:55:50;17.40;99.90
7518;DHT22;3800;48.922;9.444;2022-08-01T01:58:16;17.30;99.90
7518;DHT22;3800;48.922;9.444;2022-08-01T02:00:45;17.30;99.90
7518;DHT22;3800;48.922;9.444;2022-08-01T02:03:13;17.30;99.90
7518;DHT22;3800;48.922;9.444;2022-08-01T02:05:41;17.20;99.90
7518;DHT22;3800;48.922;9.444;2022-08-01T02:08:10;17.20;99.90
7518;DHT22;3800;48.922;9.444;2022-08-01T02:10:38;17.20;99.90
7518;DHT22;3800;48.922;9.444;2022-08-01T02:13:06;17.20;99.90
7518;DHT22;3800;48.922;9.444;2022-08-01T02:15:35;17.20;99.90
7518;DHT22;3800;48.922;9.444;2022-08-01T02:18:02;17.20;99.90
7518;DHT22;3800;48.922;9.444;2022-08-01T02:20:31;17.30;99.90
7518;DHT22;3800;48.922;9.444;2022-08-01T02:23:06;17.30;99.90
7518;DHT22;3800;48.922;9.444;2022-08-01T02:25:36;17.30;99.90
7518;DHT22;3800;48.922;9.444;2022-08-01T02:28:07;17.30;99.90
7518;DHT22;3800;48.922;9.444;2022-08-01T02:30:38;17.30;99.90
7518;DHT22;3800;48.922;9.444;2022-08-01T02:33:07;17.20;99.90
7518;DHT22;3800;48.922;9.444;2022-08-01T02:35:37;17.20;99.90
7518;DHT22;3800;48.922;9.444;2022-08-01T02:38:05;17.20;99.90
7518;DHT22;3800;48.922;9.444;2022-08-01T02:40:33;17.20;99.90
7518;DHT22;3800;48.922;9.444;2022-08-01T02:43:02;17.20;99.90
7518;DHT22;3800;48.922;9.444;2022-08-01T02:45:30;17.10;99.90
7518;DHT22;3800;48.922;9.444;2022-08-01T02:48:00;17.00;99.90
7518;DHT22;3800;48.922;9.444;2022-08-01T02:50:26;17.00;99.90
7518;DHT22;3800;48.922;9.444;2022-08-01T02:52:55;17.00;99.90
7518;DHT22;3800;48.922;9.444;2022-08-01T02:55:23;17.00;99.90
7518;DHT22;3800;48.922;9.444;2022-08-01T02:57:51;17.10;99.90
7518;DHT22;3800;48.922;9.444;2022-08-01T03:00:20;17.10;99.90
7518;DHT22;3800;48.922;9.444;2022-08-01T03:02:48;17.00;99.90
7518;DHT22;3800;48.922;9.444;2022-08-01T03:05:17;16.80;99.90
7518;DHT22;3800;48.922;9.444;2022-08-01T03:07:46;16.80;99.90
7518;DHT22;3800;48.922;9.444;2022-08-01T03:10:15;16.70;99.90
7518;DHT22;3800;48.922;9.444;2022-08-01T03:12:43;16.70;99.90
7518;DHT22;3800;48.922;9.444;2022-08-01T03:15:11;16.70;99.90
7518;DHT22;3800;48.922;9.444;2022-08-01T03:17:40;16.60;99.90
7518;DHT22;3800;48.922;9.444;2022-08-01T03:20:08;16.60;99.90
7518;DHT22;3800;48.922;9.444;2022-08-01T03:22:36;16.60;99.90
7518;DHT22;3800;48.922;9.444;2022-08-01T03:25:05;16.50;99.90
7518;DHT22;3800;48.922;9.444;2022-08-01T03:27:35;16.60;99.90
7518;DHT22;3800;48.922;9.444;2022-08-01T03:30:03;16.50;99.90
7518;DHT22;3800;48.922;9.444;2022-08-01T03:32:33;16.50;99.90
7518;DHT22;3800;48.922;9.444;2022-08-01T03:35:01;16.60;99.90
7518;DHT22;3800;48.922;9.444;2022-08-01T03:37:33;16.50;99.90
7518;DHT22;3800;48.922;9.444;2022-08-01T03:40:35;16.50;99.90
7518;DHT22;3800;48.922;9.444;2022-08-01T03:43:10;16.50;99.90
7518;DHT22;3800;48.922;9.444;2022-08-01T03:45:40;16.50;99.90
7518;DHT22;3800;48.922;9.444;2022-08-01T03:48:10;16.50;99.90
7518;DHT22;3800;48.922;9.444;2022-08-01T03:50:39;16.50;99.90
7518;DHT22;3800;48.922;9.444;2022-08-01T03:53:06;16.40;99.90
7518;DHT22;3800;48.922;9.444;2022-08-01T03:55:35;16.50;99.90
7518;DHT22;3800;48.922;9.444;2022-08-01T03:58:04;16.40;99.90
7518;DHT22;3800;48.922;9.444;2022-08-01T04:00:32;16.40;99.90
7518;DHT22;3800;48.922;9.444;2022-08-01T04:03:00;16.40;99.90
7518;DHT22;3800;48.922;9.444;2022-08-01T04:05:29;16.40;99.90
7518;DHT22;3800;48.922;9.444;2022-08-01T04:07:58;16.40;99.90
7518;DHT22;3800;48.922;9.444;2022-08-01T04:10:26;16.40;99.90
7518;DHT22;3800;48.922;9.444;2022-08-01T04:12:54;16.40;99.90
7518;DHT22;3800;48.922;9.444;2022-08-01T04:15:22;16.40;99.90
7518;DHT22;3800;48.922;9.444;2022-08-01T04:17:51;16.40;99.90
7518;DHT22;3800;48.922;9.444;2022-08-01T04:20:21;16.40;99.90
7518;DHT22;3800;48.922;9.444;2022-08-01T04:22:50;16.30;99.90
7518;DHT22;3800;48.922;9.444;2022-08-01T04:25:28;16.40;99.90
7518;DHT22;3800;48.922;9.444;2022-08-01T04:27:57;16.40;99.90
7518;DHT22;3800;48.922;9.444;2022-08-01T04:30:27;16.40;99.90
7518;DHT22;3800;48.922;9.444;2022-08-01T04:32:55;16.40;99.90
7518;DHT22;3800;48.922;9.444;2022-08-01T04:35:23;16.40;99.90
7518;DHT22;3800;48.922;9.444;2022-08-01T04:37:52;16.50;99.90
7518;DHT22;3800;48.922;9.444;2022-08-01T04:40:20;16.50;99.90
7518;DHT22;3800;48.922;9.444;2022-08-01T04:42:49;16.40;99.90
7518;DHT22;3800;48.922;9.444;2022-08-01T04:45:18;16.40;99.90
7518;DHT22;3800;48.922;9.444;2022-08-01T04:47:47;16.40;99.90
7518;DHT22;3800;48.922;9.444;2022-08-01T04:50:15;16.50;99.90
7518;DHT22;3800;48.922;9.444;2022-08-01T04:52:44;16.50;99.90
7518;DHT22;3800;48.922;9.444;2022-08-01T04:55:12;16.50;99.90
7518;DHT22;3800;48.922;9.444;2022-08-01T04:57:41;16.50;99.90
7518;DHT22;3800;48.922;9.444;2022-08-01T05:00:09;16.50;99.90
7518;DHT22;3800;48.922;9.444;2022-08-01T05:02:37;16.50;99.90
7518;DHT22;3800;48.922;9.444;2022-08-01T05:05:06;16.60;99.90
7518;DHT22;3800;48.922;9.444;2022-08-01T05:07:34;16.60;99.90
7518;DHT22;3800;48.922;9.444;2022-08-01T05:10:03;16.70;99.90
7518;DHT22;3800;48.922;9.444;2022-08-01T05:12:31;16.70;99.90
7518;DHT22;3800;48.922;9.444;2022-08-01T05:14:59;16.80;99.90
7518;DHT22;3800;48.922;9.444;2022-08-01T05:17:28;16.90;99.90
7518;DHT22;3800;48.922;9.444;2022-08-01T05:19:57;16.90;99.90
7518;DHT22;3800;48.922;9.444;2022-08-01T05:22:25;17.00;99.90
7518;DHT22;3800;48.922;9.444;2022-08-01T05:24:54;17.20;99.90
7518;DHT22;3800;48.922;9.444;2022-08-01T05:27:23;17.20;99.90
7518;DHT22;3800;48.922;9.444;2022-08-01T05:29:51;17.40;99.90
7518;DHT22;3800;48.922;9.444;2022-08-01T05:32:19;17.50;99.90
7518;DHT22;3800;48.922;9.444;2022-08-01T05:34:48;17.60;99.90
7518;DHT22;3800;48.922;9.444;2022-08-01T05:37:16;17.60;99.90
7518;DHT22;3800;48.922;9.444;2022-08-01T05:39:44;17.70;99.90
7518;DHT22;3800;48.922;9.444;2022-08-01T05:42:13;17.80;99.90
7518;DHT22;3800;48.922;9.444;2022-08-01T05:44:41;17.80;99.90
7518;DHT22;3800;48.922;9.444;2022-08-01T05:47:10;17.90;99.90
7518;DHT22;3800;48.922;9.444;2022-08-01T05:49:38;18.00;99.90
7518;DHT22;3800;48.922;9.444;2022-08-01T05:52:06;18.20;99.90
7518;DHT22;3800;48.922;9.444;2022-08-01T05:54:34;18.30;99.90
7518;DHT22;3800;48.922;9.444;2022-08-01T05:57:04;18.40;99.90
7518;DHT22;3800;48.922;9.444;2022-08-01T05:59:32;18.60;99.90
7518;DHT22;3800;48.922;9.444;2022-08-01T06:02:00;18.70;99.90
7518;DHT22;3800;48.922;9.444;2022-08-01T06:04:28;18.80;99.90
7518;DHT22;3800;48.922;9.444;2022-08-01T06:06:57;18.90;99.90
7518;DHT22;3800;48.922;9.444;2022-08-01T06:09:25;18.90;99.90
7518;DHT22;3800;48.922;9.444;2022-08-01T06:11:53;19.00;99.90
7518;DHT22;3800;48.922;9.444;2022-08-01T06:14:21;19.10;99.90
7518;DHT22;3800;48.922;9.444;2022-08-01T06:16:51;19.10;99.90
7518;DHT22;3800;48.922;9.444;2022-08-01T06:19:19;19.20;99.90
7518;DHT22;3800;48.922;9.444;2022-08-01T06:21:48;19.30;99.90
7518;DHT22;3800;48.922;9.444;2022-08-01T06:24:16;19.40;99.90
7518;DHT22;3800;48.922;9.444;2022-08-01T06:26:45;19.50;99.90
7518;DHT22;3800;48.922;9.444;2022-08-01T06:29:14;19.60;99.90
7518;DHT22;3800;48.922;9.444;2022-08-01T06:31:42;19.80;99.90
7518;DHT22;3800;48.922;9.444;2022-08-01T06:34:11;19.90;99.90
7518;DHT22;3800;48.922;9.444;2022-08-01T06:36:39;20.00;99.90
7518;DHT22;3800;48.922;9.444;2022-08-01T06:39:07;20.10;99.90
7518;DHT22;3800;48.922;9.444;2022-08-01T06:41:36;20.20;99.90
7518;DHT22;3800;48.922;9.444;2022-08-01T06:44:04;20.30;99.90
7518;DHT22;3800;48.922;9.444;2022-08-01T06:46:33;20.40;99.90
7518;DHT22;3800;48.922;9.444;2022-08-01T06:49:01;20.50;99.90
7518;DHT22;3800;48.922;9.444;2022-08-01T06:51:29;20.60;99.90
7518;DHT22;3800;48.922;9.444;2022-08-01T06:53:59;20.90;99.90
7518;DHT22;3800;48.922;9.444;2022-08-01T06:56:27;20.80;99.90
7518;DHT22;3800;48.922;9.444;2022-08-01T06:58:55;20.90;99.90
7518;DHT22;3800;48.922;9.444;2022-08-01T07:01:24;21.10;99.90
7518;DHT22;3800;48.922;9.444;2022-08-01T07:03:52;21.20;99.90
7518;DHT22;3800;48.922;9.444;2022-08-01T07:06:21;21.30;99.90
7518;DHT22;3800;48.922;9.444;2022-08-01T07:08:49;21.50;99.90
7518;DHT22;3800;48.922;9.444;2022-08-01T07:11:17;21.50;99.90
7518;DHT22;3800;48.922;9.444;2022-08-01T07:13:45;21.70;99.90
7518;DHT22;3800;48.922;9.444;2022-08-01T07:16:14;21.70;99.90
7518;DHT22;3800;48.922;9.444;2022-08-01T07:18:44;21.80;99.90
7518;DHT22;3800;48.922;9.444;2022-08-01T07:21:12;21.70;99.90
7518;DHT22;3800;48.922;9.444;2022-08-01T07:23:41;21.90;99.90
7518;DHT22;3800;48.922;9.444;2022-08-01T07:26:09;21.90;99.90
7518;DHT22;3800;48.922;9.444;2022-08-01T07:28:38;22.20;99.90
7518;DHT22;3800;48.922;9.444;2022-08-01T07:31:07;22.20;99.90
7518;DHT22;3800;48.922;9.444;2022-08-01T07:33:35;22.40;99.90
7518;DHT22;3800;48.922;9.444;2022-08-01T07:36:04;22.30;99.90
7518;DHT22;3800;48.922;9.444;2022-08-01T07:38:32;22.40;99.90
7518;DHT22;3800;48.922;9.444;2022-08-01T07:41:00;22.40;99.90
7518;DHT22;3800;48.922;9.444;2022-08-01T07:43:29;22.60;99.90
7518;DHT22;3800;48.922;9.444;2022-08-01T07:45:57;22.70;99.90
7518;DHT22;3800;48.922;9.444;2022-08-01T07:48:25;22.80;99.90
7518;DHT22;3800;48.922;9.444;2022-08-01T07:50:54;22.90;99.90
7518;DHT22;3800;48.922;9.444;2022-08-01T07:53:22;23.10;99.90
7518;DHT22;3800;48.922;9.444;2022-08-01T07:55:50;23.20;99.90
7518;DHT22;3800;48.922;9.444;2022-08-01T07:58:18;23.20;99.90
7518;DHT22;3800;48.922;9.444;2022-08-01T08:00:47;23.30;99.90
7518;DHT22;3800;48.922;9.444;2022-08-01T08:03:15;23.40;99.90
7518;DHT22;3800;48.922;9.444;2022-08-01T08:05:43;23.50;99.90
7518;DHT22;3800;48.922;9.444;2022-08-01T08:08:12;23.50;99.90
7518;DHT22;3800;48.922;9.444;2022-08-01T08:10:40;23.60;99.90
7518;DHT22;3800;48.922;9.444;2022-08-01T08:13:08;23.70;99.90
7518;DHT22;3800;48.922;9.444;2022-08-01T08:15:37;23.80;99.90
7518;DHT22;3800;48.922;9.444;2022-08-01T08:18:05;23.90;99.90
7518;DHT22;3800;48.922;9.444;2022-08-01T08:20:33;24.00;99.90
7518;DHT22;3800;48.922;9.444;2022-08-01T08:23:02;24.10;99.90
7518;DHT22;3800;48.922;9.444;2022-08-01T08:25:30;24.20;99.90
7518;DHT22;3800;48.922;9.444;2022-08-01T08:27:58;24.40;99.90
7518;DHT22;3800;48.922;9.444;2022-08-01T08:30:27;24.70;99.90
7518;DHT22;3800;48.922;9.444;2022-08-01T08:32:55;24.60;99.90
7518;DHT22;3800;48.922;9.444;2022-08-01T08:35:24;24.70;99.90
7518;DHT22;3800;48.922;9.444;2022-08-01T08:37:52;24.60;99.90
7518;DHT22;3800;48.922;9.444;2022-08-01T08:40:20;24.70;99.90
7518;DHT22;3800;48.922;9.444;2022-08-01T08:42:49;24.90;99.90
7518;DHT22;3800;48.922;9.444;2022-08-01T08:45:17;24.80;99.90
7518;DHT22;3800;48.922;9.444;2022-08-01T08:47:46;25.00;99.90
7518;DHT22;3800;48.922;9.444;2022-08-01T08:50:14;25.10;99.90
7518;DHT22;3800;48.922;9.444;2022-08-01T08:52:43;25.20;99.90
7518;DHT22;3800;48.922;9.444;2022-08-01T08:55:11;25.40;99.90
7518;DHT22;3800;48.922;9.444;2022-08-01T08:57:40;25.50;99.90
7518;DHT22;3800;48.922;9.444;2022-08-01T09:00:08;25.60;99.90
7518;DHT22;3800;48.922;9.444;2022-08-01T09:02:42;25.80;99.90
7518;DHT22;3800;48.922;9.444;2022-08-01T09:05:10;25.80;99.90
7518;DHT22;3800;48.922;9.444;2022-08-01T09:07:38;25.80;99.90
7518;DHT22;3800;48.922;9.444;2022-08-01T09:10:07;25.90;99.90
7518;DHT22;3800;48.922;9.444;2022-08-01T09:12:36;25.90;99.90
7518;DHT22;3800;48.922;9.444;2022-08-01T09:15:05;25.90;99.90
7518;DHT22;3800;48.922;9.444;2022-08-01T09:17:40;25.70;99.90
7518;DHT22;3800;48.922;9.444;2022-08-01T09:20:08;25.60;99.90
7518;DHT22;3800;48.922;9.444;2022-08-01T09:22:37;25.40;99.90
7518;DHT22;3800;48.922;9.444;2022-08-01T09:25:06;25.30;99.90
7518;DHT22;3800;48.922;9.444;2022-08-01T09:27:35;25.50;99.90
7518;DHT22;3800;48.922;9.444;2022-08-01T09:30:09;25.70;99.90
7518;DHT22;3800;48.922;9.444;2022-08-01T09:35:26;26.10;99.90
7518;DHT22;3800;48.922;9.444;2022-08-01T09:38:18;26.30;99.90
7518;DHT22;3800;48.922;9.444;2022-08-01T09:40:52;26.30;99.90
7518;DHT22;3800;48.922;9.444;2022-08-01T09:43:20;26.20;99.90
7518;DHT22;3800;48.922;9.444;2022-08-01T09:45:47;26.20;99.90
7518;DHT22;3800;48.922;9.444;2022-08-01T09:48:17;26.30;99.90
7518;DHT22;3800;48.922;9.444;2022-08-01T09:50:45;26.20;99.90
7518;DHT22;3800;48.922;9.444;2022-08-01T09:53:14;26.10;99.90
7518;DHT22;3800;48.922;9.444;2022-08-01T09:55:42;26.10;99.90
7518;DHT22;3800;48.922;9.444;2022-08-01T09:58:11;25.90;99.90
7518;DHT22;3800;48.922;9.444;2022-08-01T10:00:39;26.10;99.90
7518;DHT22;3800;48.922;9.444;2022-08-01T10:05:48;26.10;99.90
7518;DHT22;3800;48.922;9.444;2022-08-01T10:08:17;25.90;99.90
7518;DHT22;3800;48.922;9.444;2022-08-01T10:11:19;26.20;99.90
7518;DHT22;3800;48.922;9.444;2022-08-01T10:13:35;26.40;99.90
7518;DHT22;3800;48.922;9.444;2022-08-01T10:16:03;26.40;99.90
7518;DHT22;3800;48.922;9.444;2022-08-01T10:18:32;26.30;99.90
7518;DHT22;3800;48.922;9.444;2022-08-01T10:21:00;26.10;99.90
7518;DHT22;3800;48.922;9.444;2022-08-01T10:23:30;26.00;99.90
7518;DHT22;3800;48.922;9.444;2022-08-01T10:25:56;26.10;99.90
7518;DHT22;3800;48.922;9.444;2022-08-01T10:28:25;26.10;99.90
7518;DHT22;3800;48.922;9.444;2022-08-01T10:30:53;26.10;99.90
7518;DHT22;3800;48.922;9.444;2022-08-01T10:33:22;26.10;99.90
7518;DHT22;3800;48.922;9.444;2022-08-01T10:35:51;26.30;99.90
7518;DHT22;3800;48.922;9.444;2022-08-01T10:38:19;26.40;99.90
7518;DHT22;3800;48.922;9.444;2022-08-01T10:40:47;26.60;99.90
7518;DHT22;3800;48.922;9.444;2022-08-01T10:43:15;26.60;99.90
7518;DHT22;3800;48.922;9.444;2022-08-01T10:45:43;26.50;99.90
7518;DHT22;3800;48.922;9.444;2022-08-01T10:48:18;26.40;99.90
7518;DHT22;3800;48.922;9.444;2022-08-01T10:50:57;26.60;99.90
7518;DHT22;3800;48.922;9.444;2022-08-01T10:53:26;26.80;99.90
7518;DHT22;3800;48.922;9.444;2022-08-01T10:56:03;26.80;99.90
7518;DHT22;3800;48.922;9.444;2022-08-01T10:58:34;26.70;99.90
7518;DHT22;3800;48.922;9.444;2022-08-01T11:01:13;26.70;99.90
7518;DHT22;3800;48.922;9.444;2022-08-01T11:03:58;26.80;99.90
7518;DHT22;3800;48.922;9.444;2022-08-01T11:06:25;26.70;99.90
7518;DHT22;3800;48.922;9.444;2022-08-01T11:08:53;26.90;99.90
7518;DHT22;3800;48.922;9.444;2022-08-01T11:11:21;26.90;99.90
7518;DHT22;3800;48.922;9.444;2022-08-01T11:14:01;26.90;99.60
7518;DHT22;3800;48.922;9.444;2022-08-01T11:16:29;26.80;99.70
7518;DHT22;3800;48.922;9.444;2022-08-01T11:18:57;26.60;99.90
7518;DHT22;3800;48.922;9.444;2022-08-01T11:24:12;26.60;99.90
7518;DHT22;3800;48.922;9.444;2022-08-01T11:26:40;26.70;99.90
7518;DHT22;3800;48.922;9.444;2022-08-01T11:29:12;26.70;99.90
7518;DHT22;3800;48.922;9.444;2022-08-01T11:31:38;26.70;99.90
7518;DHT22;3800;48.922;9.444;2022-08-01T11:34:07;26.70;99.90
7518;DHT22;3800;48.922;9.444;2022-08-01T11:36:36;26.60;99.80
7518;DHT22;3800;48.922;9.444;2022-08-01T11:39:12;26.50;99.80
7518;DHT22;3800;48.922;9.444;2022-08-01T11:41:40;26.60;99.50
7518;DHT22;3800;48.922;9.444;2022-08-01T11:44:09;26.60;99.90
7518;DHT22;3800;48.922;9.444;2022-08-01T11:46:48;26.50;99.90
7518;DHT22;3800;48.922;9.444;2022-08-01T11:49:22;26.50;99.90
7518;DHT22;3800;48.922;9.444;2022-08-01T11:51:58;26.50;98.90
7518;DHT22;3800;48.922;9.444;2022-08-01T11:54:28;26.50;98.90
7518;DHT22;3800;48.922;9.444;2022-08-01T11:56:57;26.50;99.60
7518;DHT22;3800;48.922;9.444;2022-08-01T11:59:25;26.70;99.70
7518;DHT22;3800;48.922;9.444;2022-08-01T12:01:53;26.90;99.40
7518;DHT22;3800;48.922;9.444;2022-08-01T12:04:22;27.00;98.70
7518;DHT22;3800;48.922;9.444;2022-08-01T12:06:50;26.90;98.50
7518;DHT22;3800;48.922;9.444;2022-08-01T12:09:20;26.80;98.80
7518;DHT22;3800;48.922;9.444;2022-08-01T12:11:47;26.80;99.00
7518;DHT22;3800;48.922;9.444;2022-08-01T12:14:17;26.80;98.60
7518;DHT22;3800;48.922;9.444;2022-08-01T12:16:49;26.80;98.80
7518;DHT22;3800;48.922;9.444;2022-08-01T12:19:21;26.70;98.60
7518;DHT22;3800;48.922;9.444;2022-08-01T12:24:34;26.60;98.90
7518;DHT22;3800;48.922;9.444;2022-08-01T12:27:02;26.70;99.80
7518;DHT22;3800;48.922;9.444;2022-08-01T12:29:33;26.80;98.70
7518;DHT22;3800;48.922;9.444;2022-08-01T12:32:20;26.80;98.40
7518;DHT22;3800;48.922;9.444;2022-08-01T12:34:48;26.80;98.50
7518;DHT22;3800;48.922;9.444;2022-08-01T12:37:16;27.00;98.30
7518;DHT22;3800;48.922;9.444;2022-08-01T12:39:45;27.10;98.10
7518;DHT22;3800;48.922;9.444;2022-08-01T12:42:14;27.50;98.00
7518;DHT22;3800;48.922;9.444;2022-08-01T12:44:43;27.50;98.00
7518;DHT22;3800;48.922;9.444;2022-08-01T12:47:11;27.40;98.30
7518;DHT22;3800;48.922;9.444;2022-08-01T12:49:40;27.40;98.30
7518;DHT22;3800;48.922;9.444;2022-08-01T12:52:07;27.50;98.40
7518;DHT22;3800;48.922;9.444;2022-08-01T12:57:23;27.80;97.60
7518;DHT22;3800;48.922;9.444;2022-08-01T12:59:52;27.70;97.60
7518;DHT22;3800;48.922;9.444;2022-08-01T13:02:21;27.80;97.50
7518;DHT22;3800;48.922;9.444;2022-08-01T13:04:49;27.80;98.20
7518;DHT22;3800;48.922;9.444;2022-08-01T13:07:17;27.90;97.70
7518;DHT22;3800;48.922;9.444;2022-08-01T13:09:50;28.00;97.70
7518;DHT22;3800;48.922;9.444;2022-08-01T13:12:18;28.00;97.70
7518;DHT22;3800;48.922;9.444;2022-08-01T13:14:47;28.00;97.20
7518;DHT22;3800;48.922;9.444;2022-08-01T13:17:31;28.00;97.20
7518;DHT22;3800;48.922;9.444;2022-08-01T13:19:59;28.00;97.00
7518;DHT22;3800;48.922;9.444;2022-08-01T13:22:32;28.10;97.40
7518;DHT22;3800;48.922;9.444;2022-08-01T13:25:10;28.30;96.70
7518;DHT22;3800;48.922;9.444;2022-08-01T13:27:38;28.30;96.70
7518;DHT22;3800;48.922;9.444;2022-08-01T13:30:12;28.20;97.20
7518;DHT22;3800;48.922;9.444;2022-08-01T13:32:42;28.20;96.70
7518;DHT22;3800;48.922;9.444;2022-08-01T13:35:12;28.40;96.60
7518;DHT22;3800;48.922;9.444;2022-08-01T13:37:40;28.50;97.60
7518;DHT22;3800;48.922;9.444;2022-08-01T13:40:09;28.50;96.90
7518;DHT22;3800;48.922;9.444;2022-08-01T13:42:37;28.40;96.60
7518;DHT22;3800;48.922;9.444;2022-08-01T13:45:07;28.30;96.70
7518;DHT22;3800;48.922;9.444;2022-08-01T13:47:35;28.30;96.80
7518;DHT22;3800;48.922;9.444;2022-08-01T13:50:03;28.00;96.70
7518;DHT22;3800;48.922;9.444;2022-08-01T13:52:32;27.90;97.20
7518;DHT22;3800;48.922;9.444;2022-08-01T13:55:01;27.70;97.70
7518;DHT22;3800;48.922;9.444;2022-08-01T13:57:29;27.70;97.60
7518;DHT22;3800;48.922;9.444;2022-08-01T13:59:57;27.70;96.70
7518;DHT22;3800;48.922;9.444;2022-08-01T14:02:27;27.70;96.70
7518;DHT22;3800;48.922;9.444;2022-08-01T14:04:55;27.70;96.90
7518;DHT22;3800;48.922;9.444;2022-08-01T14:07:23;27.70;97.10
7518;DHT22;3800;48.922;9.444;2022-08-01T14:09:51;27.60;97.00
7518;DHT22;3800;48.922;9.444;2022-08-01T14:12:20;27.60;97.10
7518;DHT22;3800;48.922;9.444;2022-08-01T14:14:48;27.60;97.30
7518;DHT22;3800;48.922;9.444;2022-08-01T14:17:16;27.50;97.20
7518;DHT22;3800;48.922;9.444;2022-08-01T14:19:44;27.40;97.30
7518;DHT22;3800;48.922;9.444;2022-08-01T14:22:13;27.40;97.70
7518;DHT22;3800;48.922;9.444;2022-08-01T14:24:41;27.50;97.50
7518;DHT22;3800;48.922;9.444;2022-08-01T14:27:09;27.60;97.10
7518;DHT22;3800;48.922;9.444;2022-08-01T14:29:38;27.70;97.70
7518;DHT22;3800;48.922;9.444;2022-08-01T14:32:07;27.90;97.70
7518;DHT22;3800;48.922;9.444;2022-08-01T14:34:35;27.90;97.70
7518;DHT22;3800;48.922;9.444;2022-08-01T14:37:03;28.00;97.10
7518;DHT22;3800;48.922;9.444;2022-08-01T14:39:32;28.20;97.20
7518;DHT22;3800;48.922;9.444;2022-08-01T14:42:00;28.30;96.90
7518;DHT22;3800;48.922;9.444;2022-08-01T14:44:28;28.40;96.70
7518;DHT22;3800;48.922;9.444;2022-08-01T14:46:56;28.40;96.50
7518;DHT22;3800;48.922;9.444;2022-08-01T14:49:25;28.30;97.20
7518;DHT22;3800;48.922;9.444;2022-08-01T14:51:53;28.30;96.50
7518;DHT22;3800;48.922;9.444;2022-08-01T14:54:21;28.30;96.90
7518;DHT22;3800;48.922;9.444;2022-08-01T14:56:50;28.20;96.60
7518;DHT22;3800;48.922;9.444;2022-08-01T14:59:18;28.10;96.70
7518;DHT22;3800;48.922;9.444;2022-08-01T15:01:46;28.20;97.10
7518;DHT22;3800;48.922;9.444;2022-08-01T15:04:15;28.30;96.90
7518;DHT22;3800;48.922;9.444;2022-08-01T15:06:43;28.20;96.70
7518;DHT22;3800;48.922;9.444;2022-08-01T15:09:11;28.20;96.50
7518;DHT22;3800;48.922;9.444;2022-08-01T15:11:39;28.00;96.70
7518;DHT22;3800;48.922;9.444;2022-08-01T15:14:08;28.00;96.60
7518;DHT22;3800;48.922;9.444;2022-08-01T15:16:41;27.90;96.40
7518;DHT22;3800;48.922;9.444;2022-08-01T15:19:10;27.90;96.90
7518;DHT22;3800;48.922;9.444;2022-08-01T15:21:38;28.10;97.40
7518;DHT22;3800;48.922;9.444;2022-08-01T15:24:06;28.10;96.50
7518;DHT22;3800;48.922;9.444;2022-08-01T15:26:36;28.10;95.70
7518;DHT22;3800;48.922;9.444;2022-08-01T15:29:04;28.00;96.20
7518;DHT22;3800;48.922;9.444;2022-08-01T15:31:32;28.00;96.70
7518;DHT22;3800;48.922;9.444;2022-08-01T15:34:01;27.90;96.20
7518;DHT22;3800;48.922;9.444;2022-08-01T15:36:29;27.80;96.10
7518;DHT22;3800;48.922;9.444;2022-08-01T15:38:57;27.80;96.60
7518;DHT22;3800;48.922;9.444;2022-08-01T15:41:25;27.70;96.60
7518;DHT22;3800;48.922;9.444;2022-08-01T15:43:54;27.60;96.30
7518;DHT22;3800;48.922;9.444;2022-08-01T15:46:22;27.50;96.50
7518;DHT22;3800;48.922;9.444;2022-08-01T15:48:50;27.40;96.40
7518;DHT22;3800;48.922;9.444;2022-08-01T15:51:19;27.30;96.20
7518;DHT22;3800;48.922;9.444;2022-08-01T15:53:47;27.30;96.20
7518;DHT22;3800;48.922;9.444;2022-08-01T15:56:16;27.20;96.30
7518;DHT22;3800;48.922;9.444;2022-08-01T15:58:44;27.20;96.50
7518;DHT22;3800;48.922;9.444;2022-08-01T16:01:12;27.10;96.20
7518;DHT22;3800;48.922;9.444;2022-08-01T16:03:40;27.10;96.60
7518;DHT22;3800;48.922;9.444;2022-08-01T16:06:09;27.10;96.50
7518;DHT22;3800;48.922;9.444;2022-08-01T16:08:38;27.30;96.80
7518;DHT22;3800;48.922;9.444;2022-08-01T16:11:07;27.40;96.50
7518;DHT22;3800;48.922;9.444;2022-08-01T16:13:35;27.40;96.50
7518;DHT22;3800;48.922;9.444;2022-08-01T16:16:03;27.40;96.30
7518;DHT22;3800;48.922;9.444;2022-08-01T16:18:32;27.40;96.00
7518;DHT22;3800;48.922;9.444;2022-08-01T16:21:00;27.30;96.00
7518;DHT22;3800;48.922;9.444;2022-08-01T16:23:28;27.20;96.60
7518;DHT22;3800;48.922;9.444;2022-08-01T16:25:56;27.20;96.70
7518;DHT22;3800;48.922;9.444;2022-08-01T16:28:25;27.10;96.50
7518;DHT22;3800;48.922;9.444;2022-08-01T16:30:53;27.10;96.30